Kaneohe Bay MCAS (Marion E. Carl Field) Airport Kaneohe US
ICAO: PHNG
IATA:
Category: Medium
Scheduled Services:

Elevation: 24 ft
TransAlt. 18000 ft.

Airport Communications:
APP/DEP:125
ATIS:28.45
CLNC DEL:29.47
CTAF:120.7
GND:38.28
PMSV METRO:34.46
PTD:30.72
TWR:120.7

PHNG Zoom In..

If you have problems with the map follow the link
https://www.worldairports.se/pages/airport.php?
ICAO=PHNG

Runways:

(A) RW 04 length 7771 ft width 200 ft
---- / hdg 41

(B) RW 22 length 7771 ft width 200 ft
---- / hdg 221

Location; PHNG
Day. 18 / Time. 20.57 Zulu
* Altimeter: 30.11
* Temperature: 22° c. 71.6°f.
* Wind from: 030° Speed 07 kn.
Dewpoint: 20° c.
Visibility: 10 Statute Miles.
Clouds: Scattered 2700 ft.
Clouds: Overcast 3400 ft.

PHNG 182057Z 03007KT 10SM SCT027 OVC034 22/20 A3011 RMK AO2 SLP190 T02170200 50015 $


Wind From 030°
Speed 07 kn.

 
 
jpsmedia.com for Web Design worldairports.se 2019   terms of use